Time;durP1;ratioP1;P1;durP2;ratioP2;P2;SDS_P1;SDS_P2;PMS_P1;PMS_P2;Temp;Humidity;BMP_temperature;BMP_pressure;BME280_temperature;BME280_humidity;BME280_pressure;Samples;Min_cycle;Max_cycle;Signal;HPM_P1;HPM_P2
2021/12/20 00:01:13;;;;;;;27.02;17.07;;;2.60;99.90;;;;;;1912126;74;21074;-91
2021/12/20 00:06:44;;;;;;;30.72;19.23;;;2.60;99.90;;;;;;1955697;72;22231;-92
2021/12/20 00:09:35;;;;;;;30.32;18.40;;;2.60;99.90;;;;;;1903141;74;21172;-92
2021/12/20 00:12:26;;;;;;;30.70;18.80;;;2.70;99.90;;;;;;1886534;75;21051;-92
2021/12/20 00:18:00;;;;;;;31.68;20.23;;;2.70;99.90;;;;;;1952179;72;22253;-91
2021/12/20 00:20:51;;;;;;;29.77;18.50;;;2.70;99.90;;;;;;1900415;75;21162;-91
2021/12/20 00:23:43;;;;;;;35.78;20.35;;;2.60;99.90;;;;;;1889744;75;21063;-92
2021/12/20 00:26:34;;;;;;;32.65;20.10;;;2.70;99.90;;;;;;1897759;75;21101;-91
2021/12/20 00:29:44;;;;;;;33.40;20.90;;;2.70;99.90;;;;;;1903976;75;21031;-92
2021/12/20 00:32:35;;;;;;;31.23;19.25;;;2.60;99.90;;;;;;1908928;75;21147;-91
2021/12/20 00:35:27;;;;;;;31.77;19.77;;;2.50;99.90;;;;;;1917713;75;21072;-92
2021/12/20 00:44:07;;;;;;;35.98;21.30;;;2.50;99.90;;;;;;1943750;72;22131;-91
2021/12/20 00:46:59;;;;;;;33.78;20.97;;;2.50;99.90;;;;;;1882606;75;21130;-92
2021/12/20 00:49:50;;;;;;;31.17;20.27;;;2.50;99.90;;;;;;1879468;75;21077;-92
2021/12/20 00:52:43;;;;;;;32.45;20.52;;;2.50;99.90;;;;;;1882840;75;21152;-93
2021/12/20 00:55:53;;;;;;;29.92;18.85;;;2.50;99.90;;;;;;1873893;75;21054;-92
2021/12/20 01:01:28;;;;;;;32.40;19.87;;;2.60;99.90;;;;;;1976375;72;22174;-91
2021/12/20 01:08:03;;;;;;;28.60;18.42;;;2.60;99.90;;;;;;2088862;68;22095;-93
2021/12/20 01:10:55;;;;;;;29.45;18.77;;;2.50;99.90;;;;;;2065513;69;21099;-91
2021/12/20 01:13:46;;;;;;;32.48;19.62;;;2.50;99.90;;;;;;2047126;69;21116;-92
2021/12/20 01:16:37;;;;;;;29.25;17.60;;;2.50;99.90;;;;;;2048655;69;21018;-92
2021/12/20 01:19:47;;;;;;;30.15;18.62;;;2.50;99.90;;;;;;2055015;69;21084;-91
2021/12/20 01:25:22;;;;;;;29.32;18.32;;;2.50;99.90;;;;;;1943863;72;22273;-91
2021/12/20 01:28:15;;;;;;;28.12;18.30;;;2.50;99.90;;;;;;1837592;77;21105;-92
2021/12/20 01:31:06;;;;;;;29.92;18.52;;;2.50;99.90;;;;;;1884208;75;21182;-93
2021/12/20 01:33:58;;;;;;;26.68;16.95;;;2.50;99.90;;;;;;1884005;75;21059;-91
2021/12/20 01:39:51;;;;;;;27.75;18.15;;;2.50;99.90;;;;;;1940541;72;22210;-92
2021/12/20 01:45:30;;;;;;;27.98;18.12;;;2.50;99.90;;;;;;1961048;72;22141;-92
2021/12/20 01:48:22;;;;;;;28.87;16.82;;;2.50;99.90;;;;;;1917998;75;21154;-93
2021/12/20 01:51:43;;;;;;;27.45;17.20;;;2.50;99.90;;;;;;1926247;73;21113;-93
2021/12/20 01:54:23;;;;;;;29.55;18.35;;;2.50;99.90;;;;;;1938438;73;21494;-92
2021/12/20 02:01:21;;;;;;;30.12;18.25;;;2.50;99.90;;;;;;1985225;71;22123;-91
2021/12/20 02:04:16;;;;;;;28.27;17.70;;;2.50;99.90;;;;;;1953770;72;21102;-91
2021/12/20 02:07:08;;;;;;;28.77;18.10;;;2.50;99.90;;;;;;2039535;69;21064;-91
2021/12/20 02:10:00;;;;;;;27.22;18.02;;;2.50;99.90;;;;;;1987656;71;21122;-93
2021/12/20 02:13:10;;;;;;;28.90;17.42;;;2.60;99.90;;;;;;2034216;70;21080;-91
2021/12/20 02:16:02;;;;;;;29.00;17.70;;;2.50;99.90;;;;;;2044735;69;21089;-93
2021/12/20 02:18:53;;;;;;;26.73;17.77;;;2.40;99.90;;;;;;2035128;70;21133;-92
2021/12/20 02:21:46;;;;;;;31.02;18.77;;;2.40;99.90;;;;;;2040141;69;21121;-91
2021/12/20 02:24:37;;;;;;;29.15;18.20;;;2.50;99.90;;;;;;2033416;69;21026;-91
2021/12/20 02:27:28;;;;;;;30.12;18.20;;;2.50;99.90;;;;;;2033938;70;21068;-92
2021/12/20 02:30:40;;;;;;;28.55;18.32;;;2.50;99.90;;;;;;2052951;69;21039;-92
2021/12/20 02:42:52;;;;;;;26.93;17.95;;;2.50;99.90;;;;;;1944655;72;22338;-93
2021/12/20 02:45:44;;;;;;;29.85;18.70;;;2.50;99.90;;;;;;1874783;75;21121;-91
2021/12/20 02:48:35;;;;;;;31.45;19.67;;;2.40;99.90;;;;;;1898283;75;21099;-92
2021/12/20 02:51:27;;;;;;;29.92;19.23;;;2.50;99.90;;;;;;1900116;75;21063;-91
2021/12/20 02:54:40;;;;;;;28.70;17.82;;;2.40;99.90;;;;;;1877481;75;21108;-91
2021/12/20 02:57:32;;;;;;;30.25;19.35;;;2.40;99.90;;;;;;1873259;76;21135;-91
2021/12/20 03:00:24;;;;;;;27.58;17.42;;;2.40;99.90;;;;;;1873455;76;21563;-92
2021/12/20 03:03:15;;;;;;;30.00;17.70;;;2.30;99.90;;;;;;1877447;75;21159;-93
2021/12/20 03:06:12;;;;;;;28.05;17.77;;;2.40;99.90;;;;;;1893245;75;21098;-92
2021/12/20 03:09:06;;;;;;;29.15;18.50;;;2.40;99.90;;;;;;1894133;75;21051;-91
2021/12/20 03:11:59;;;;;;;27.95;17.50;;;2.40;99.90;;;;;;1896729;75;21048;-91
2021/12/20 03:17:29;;;;;;;26.42;17.25;;;2.30;99.90;;;;;;1976482;72;22224;-93
2021/12/20 03:20:21;;;;;;;30.60;18.67;;;2.30;99.90;;;;;;1937945;73;21114;-91
2021/12/20 03:23:12;;;;;;;31.05;18.73;;;2.30;99.90;;;;;;1905605;75;21176;-91
2021/12/20 03:26:05;;;;;;;27.02;17.65;;;2.30;99.90;;;;;;1905528;75;21087;-91
2021/12/20 03:29:14;;;;;;;26.30;16.30;;;2.30;99.90;;;;;;1932181;74;21067;-91
2021/12/20 03:32:06;;;;;;;29.72;18.87;;;2.40;99.90;;;;;;1908408;74;21051;-92
2021/12/20 03:34:58;;;;;;;29.67;17.90;;;2.50;99.90;;;;;;1927166;74;21189;-91
2021/12/20 03:37:50;;;;;;;31.15;18.35;;;2.40;99.90;;;;;;1907714;74;21550;-90
2021/12/20 03:44:21;;;;;;;26.68;17.10;;;2.30;99.90;;;;;;2074480;68;22122;-92
2021/12/20 03:50:24;;;;;;;30.32;17.95;;;2.30;99.90;;;;;;2092258;68;22079;-91
2021/12/20 03:55:54;;;;;;;29.18;17.77;;;2.30;99.90;;;;;;1939958;72;22211;-91
2021/12/20 04:01:25;;;;;;;28.07;17.40;;;2.30;99.90;;;;;;1957839;72;22297;-91
2021/12/20 04:04:17;;;;;;;28.55;17.73;;;2.30;99.90;;;;;;1910668;75;21122;-92
2021/12/20 04:07:09;;;;;;;29.07;17.30;;;2.20;99.90;;;;;;1889994;75;21133;-92
2021/12/20 04:10:00;;;;;;;29.48;17.77;;;2.30;99.90;;;;;;1896707;75;21043;-91
2021/12/20 04:13:11;;;;;;;27.82;18.30;;;2.30;99.90;;;;;;1902789;75;21042;-91
2021/12/20 04:16:03;;;;;;;28.25;17.15;;;2.30;99.90;;;;;;1907382;75;21084;-91
2021/12/20 04:18:54;;;;;;;29.27;18.77;;;2.20;99.90;;;;;;1903504;75;21105;-91
2021/12/20 04:24:29;;;;;;;29.30;18.23;;;2.20;99.90;;;;;;1945068;72;22100;-92
2021/12/20 04:27:20;;;;;;;26.97;17.52;;;2.20;99.90;;;;;;1903830;75;21106;-92
2021/12/20 04:30:14;;;;;;;28.20;17.85;;;2.30;99.90;;;;;;1891261;75;21232;-92
2021/12/20 04:33:06;;;;;;;26.30;16.77;;;2.30;99.90;;;;;;1892743;75;21090;-92
2021/12/20 04:36:16;;;;;;;30.52;17.30;;;2.30;99.90;;;;;;1903195;75;21146;-93
2021/12/20 04:39:12;;;;;;;26.70;16.35;;;2.20;99.90;;;;;;1888150;75;21083;-92
2021/12/20 04:42:00;;;;;;;25.62;16.15;;;2.30;99.90;;;;;;1904412;75;21102;-93
2021/12/20 04:48:07;;;;;;;27.00;16.85;;;2.20;99.90;;;;;;1981246;71;22202;-92
2021/12/20 04:53:42;;;;;;;27.82;17.02;;;2.10;99.90;;;;;;1962695;72;22135;-91
2021/12/20 04:56:33;;;;;;;27.67;17.60;;;2.20;99.90;;;;;;1919865;73;21076;-91
2021/12/20 05:02:12;;;;;;;24.67;16.32;;;2.20;99.90;;;;;;1947991;72;22127;-91
2021/12/20 05:05:04;;;;;;;28.00;15.85;;;2.10;99.90;;;;;;1907008;73;21087;-92
2021/12/20 05:07:57;;;;;;;27.48;16.40;;;2.10;99.90;;;;;;1950582;73;21066;-92
2021/12/20 05:13:33;;;;;;;32.42;22.07;;;2.20;99.90;;;;;;1935878;72;38444;-92
2021/12/20 05:19:44;;;;;;;30.08;17.82;;;2.20;99.90;;;;;;2045322;69;22079;-92
2021/12/20 05:22:36;;;;;;;27.60;16.27;;;2.20;99.90;;;;;;2023592;70;21544;-89
2021/12/20 05:25:28;;;;;;;27.55;17.40;;;2.20;99.90;;;;;;1951528;73;21126;-91
2021/12/20 05:28:19;;;;;;;28.95;16.10;;;2.20;99.90;;;;;;1963733;72;21031;-91
2021/12/20 05:31:28;;;;;;;27.40;16.65;;;2.20;99.90;;;;;;1973096;73;21029;-91
2021/12/20 05:34:20;;;;;;;28.32;15.98;;;2.20;99.90;;;;;;1957968;73;21047;-92
2021/12/20 05:37:13;;;;;;;28.98;17.17;;;2.20;99.90;;;;;;1970463;73;21092;-92
2021/12/20 05:40:05;;;;;;;28.70;17.70;;;2.10;99.90;;;;;;1949689;73;21134;-91
2021/12/20 05:42:57;;;;;;;27.65;16.40;;;2.20;99.90;;;;;;1968288;73;21149;-91
2021/12/20 05:45:48;;;;;;;28.17;16.27;;;2.20;99.90;;;;;;1960405;72;21109;-91
2021/12/20 05:48:39;;;;;;;28.20;16.27;;;2.20;99.90;;;;;;1956202;73;21108;-91
2021/12/20 05:51:31;;;;;;;26.77;16.50;;;2.10;99.90;;;;;;1988338;71;21054;-91
2021/12/20 05:54:22;;;;;;;26.97;16.75;;;2.20;99.90;;;;;;1992321;71;21143;-93
2021/12/20 05:57:14;;;;;;;27.67;17.02;;;2.10;99.90;;;;;;1974152;73;21804;-91
2021/12/20 06:00:12;;;;;;;28.25;17.15;;;2.10;99.90;;;;;;1922581;73;21097;-91
2021/12/20 06:03:05;;;;;;;27.35;17.17;;;2.20;99.90;;;;;;1935062;73;21091;-91
2021/12/20 06:05:56;;;;;;;27.82;16.50;;;2.20;99.90;;;;;;1920096;74;21051;-92
2021/12/20 06:09:06;;;;;;;27.95;16.62;;;2.10;99.90;;;;;;1916257;75;21078;-91
2021/12/20 06:12:16;;;;;;;28.70;17.15;;;2.20;99.90;;;;;;1971893;73;21035;-92
2021/12/20 06:15:10;;;;;;;29.05;17.23;;;2.10;99.90;;;;;;1974368;73;21084;-92
2021/12/20 06:18:01;;;;;;;27.00;16.97;;;2.20;99.90;;;;;;1974278;72;21107;-91
2021/12/20 06:20:53;;;;;;;28.73;17.02;;;2.10;99.90;;;;;;1960916;72;21120;-92
2021/12/20 06:23:44;;;;;;;28.40;17.07;;;2.10;99.90;;;;;;1974426;72;21047;-91
2021/12/20 06:26:37;;;;;;;28.85;17.40;;;2.20;99.90;;;;;;1956030;73;21047;-91
2021/12/20 06:29:29;;;;;;;28.33;17.47;;;2.20;99.90;;;;;;1973521;73;21031;-92
2021/12/20 06:32:22;;;;;;;27.30;16.77;;;2.20;99.90;;;;;;1941286;73;21666;-92
2021/12/20 06:35:14;;;;;;;29.10;17.75;;;2.10;99.90;;;;;;1964562;73;21037;-91
2021/12/20 06:40:48;;;;;;;28.67;16.35;;;2.20;99.90;;;;;;1956568;72;22221;-91
2021/12/20 06:43:40;;;;;;;27.70;17.00;;;2.20;99.90;;;;;;1883649;75;21066;-93
2021/12/20 06:46:32;;;;;;;30.10;17.20;;;2.20;99.90;;;;;;1873490;75;21116;-91
2021/12/20 06:49:40;;;;;;;26.77;16.48;;;2.20;99.90;;;;;;1894699;75;21059;-91
2021/12/20 06:52:51;;;;;;;27.95;15.95;;;2.20;99.90;;;;;;1898786;75;21244;-90
2021/12/20 06:55:43;;;;;;;27.02;16.00;;;2.20;99.90;;;;;;1874960;75;21137;-91
2021/12/20 06:58:35;;;;;;;27.62;16.07;;;2.30;99.90;;;;;;1889806;75;21159;-91
2021/12/20 07:04:12;;;;;;;28.73;15.78;;;2.20;99.90;;;;;;1952068;72;22185;-91
2021/12/20 07:07:03;;;;;;;26.27;16.25;;;2.20;99.90;;;;;;1922466;74;21059;-92
2021/12/20 07:09:56;;;;;;;27.98;16.25;;;2.20;99.90;;;;;;1930400;74;21055;-91
2021/12/20 07:12:48;;;;;;;27.62;16.30;;;2.20;99.90;;;;;;1929802;74;21110;-92
2021/12/20 07:15:57;;;;;;;26.17;15.23;;;2.20;99.90;;;;;;1904660;74;21122;-91
2021/12/20 07:18:49;;;;;;;26.05;16.10;;;2.20;99.90;;;;;;1924086;74;21160;-91
2021/12/20 07:21:40;;;;;;;30.65;16.75;;;2.10;99.90;;;;;;1914638;74;21051;-91
2021/12/20 07:27:12;;;;;;;26.73;16.97;;;2.20;99.90;;;;;;1957681;72;22209;-81
2021/12/20 07:30:06;;;;;;;27.10;16.05;;;2.30;99.90;;;;;;1899876;74;21043;-81
2021/12/20 07:33:01;;;;;;;26.73;15.68;;;2.40;99.90;;;;;;1896489;75;21140;-81
2021/12/20 07:35:52;;;;;;;27.17;15.65;;;2.30;99.90;;;;;;1876605;75;21197;-81
2021/12/20 07:38:57;;;;;;;27.35;15.65;;;2.30;99.90;;;;;;1901103;75;21032;-81
2021/12/20 07:44:31;;;;;;;25.60;15.53;;;2.20;99.90;;;;;;1964044;72;22173;-81
2021/12/20 07:47:23;;;;;;;26.80;15.05;;;2.20;99.90;;;;;;1916451;73;21251;-80
2021/12/20 07:50:14;;;;;;;28.20;16.62;;;2.20;99.90;;;;;;1922099;74;21106;-80
2021/12/20 07:53:05;;;;;;;23.30;14.60;;;2.10;99.90;;;;;;1905047;75;21095;-81
2021/12/20 07:56:17;;;;;;;26.23;14.90;;;2.10;99.90;;;;;;1904969;75;21164;-81
2021/12/20 08:01:48;;;;;;;29.37;16.12;;;2.00;99.90;;;;;;1962426;72;22107;-81
2021/12/20 08:04:40;;;;;;;28.95;16.23;;;2.10;99.90;;;;;;1950684;73;21125;-81
2021/12/20 08:07:32;;;;;;;26.35;15.50;;;2.10;99.90;;;;;;1928454;73;21128;-81
2021/12/20 08:10:27;;;;;;;24.47;14.70;;;2.00;99.90;;;;;;1922098;73;21125;-81
2021/12/20 08:13:45;;;;;;;24.80;14.58;;;2.10;99.90;;;;;;1917396;75;21113;-81
2021/12/20 08:16:36;;;;;;;24.05;13.70;;;2.00;99.90;;;;;;1918042;73;21082;-81
2021/12/20 08:19:28;;;;;;;26.90;15.65;;;2.10;99.90;;;;;;1916483;73;21113;-92
2021/12/20 08:22:23;;;;;;;27.13;15.15;;;2.00;99.90;;;;;;1917723;75;21114;-91
2021/12/20 08:25:13;;;;;;;24.92;14.87;;;2.10;99.90;;;;;;1940014;73;21089;-90
2021/12/20 08:28:05;;;;;;;27.05;15.48;;;2.10;99.90;;;;;;1917642;75;21102;-91
2021/12/20 08:30:57;;;;;;;29.57;16.52;;;2.10;99.90;;;;;;1918096;75;21111;-91
2021/12/20 08:33:48;;;;;;;23.50;15.25;;;2.10;99.90;;;;;;1918364;75;21113;-91
2021/12/20 08:36:39;;;;;;;26.80;15.72;;;2.10;99.90;;;;;;1917706;75;21200;-91
2021/12/20 08:39:33;;;;;;;25.35;15.58;;;2.10;99.90;;;;;;1917699;75;21173;-92
2021/12/20 08:42:24;;;;;;;29.10;15.85;;;2.10;99.90;;;;;;1917737;75;21060;-91
2021/12/20 08:45:21;;;;;;;26.97;15.18;;;2.10;99.90;;;;;;1917622;75;21063;-92
2021/12/20 08:48:14;;;;;;;26.45;15.35;;;2.20;99.90;;;;;;1917071;73;21207;-92
2021/12/20 08:51:25;;;;;;;25.62;15.00;;;2.30;99.90;;;;;;1917366;75;21167;-92
2021/12/20 08:54:35;;;;;;;27.22;15.35;;;2.20;99.90;;;;;;1917590;75;21105;-91
2021/12/20 08:57:28;;;;;;;25.27;15.10;;;2.30;99.90;;;;;;1917303;75;21074;-91
2021/12/20 09:00:25;;;;;;;28.70;15.58;;;2.30;99.90;;;;;;1917146;75;21118;-91
2021/12/20 09:03:15;;;;;;;24.20;15.40;;;2.30;99.90;;;;;;1918605;75;21205;-92
2021/12/20 09:06:08;;;;;;;25.57;15.10;;;2.30;99.90;;;;;;1922342;74;21114;-91
2021/12/20 09:09:02;;;;;;;27.22;14.83;;;2.30;99.90;;;;;;1926455;74;21154;-91
2021/12/20 09:11:58;;;;;;;23.27;14.47;;;2.20;99.90;;;;;;1840946;77;21195;-90
2021/12/20 09:14:54;;;;;;;27.75;15.15;;;2.20;99.90;;;;;;1837630;77;21076;-91
2021/12/20 09:20:28;;;;;;;27.35;15.20;;;2.00;99.90;;;;;;1951257;72;22252;-91
2021/12/20 09:23:21;;;;;;;27.70;15.60;;;2.00;99.90;;;;;;1899544;75;21067;-92
2021/12/20 09:26:13;;;;;;;28.42;14.65;;;2.00;99.90;;;;;;1875236;75;21086;-92
2021/12/20 09:29:04;;;;;;;25.20;14.30;;;2.10;99.90;;;;;;1901786;75;21048;-92
2021/12/20 09:32:14;;;;;;;24.45;14.45;;;2.10;99.90;;;;;;1889070;73;21581;-92
2021/12/20 09:35:09;;;;;;;21.97;13.95;;;2.10;99.90;;;;;;1872980;75;21564;-92
2021/12/20 09:38:05;;;;;;;26.20;14.30;;;2.10;99.90;;;;;;1888741;73;21065;-92
2021/12/20 09:41:13;;;;;;;22.30;13.40;;;2.10;99.90;;;;;;1891520;73;21103;-92
2021/12/20 09:43:57;;;;;;;24.70;13.68;;;2.10;99.90;;;;;;1937224;73;21137;-91
2021/12/20 09:50:24;;;;;;;24.02;13.38;;;2.00;99.90;;;;;;2014562;71;22232;-92
2021/12/20 09:53:16;;;;;;;26.05;14.03;;;2.10;99.90;;;;;;1953555;73;21093;-92
2021/12/20 09:56:09;;;;;;;23.22;14.45;;;2.10;99.90;;;;;;2034684;70;21137;-91
2021/12/20 09:59:03;;;;;;;24.43;14.33;;;2.10;99.90;;;;;;2038566;69;21069;-92
2021/12/20 10:02:13;;;;;;;24.75;14.63;;;2.10;99.90;;;;;;2043109;69;21191;-92
2021/12/20 10:05:06;;;;;;;27.85;14.38;;;2.10;99.90;;;;;;2037106;70;21086;-92
2021/12/20 10:08:02;;;;;;;30.60;14.13;;;2.20;99.90;;;;;;2036002;70;21031;-93
2021/12/20 10:10:52;;;;;;;25.52;14.87;;;2.20;99.90;;;;;;2034721;70;21181;-93
2021/12/20 10:13:44;;;;;;;24.92;15.20;;;2.30;99.90;;;;;;2034705;70;21147;-92
2021/12/20 10:16:37;;;;;;;23.18;14.35;;;2.30;99.90;;;;;;2033312;70;21087;-91
2021/12/20 10:19:34;;;;;;;21.77;14.60;;;2.30;99.90;;;;;;2047932;69;21060;-92
2021/12/20 10:22:29;;;;;;;25.25;15.18;;;2.30;99.90;;;;;;2034143;70;21144;-94
2021/12/20 10:25:35;;;;;;;25.70;15.38;;;2.30;99.90;;;;;;2051090;69;21085;-91
2021/12/20 10:28:33;;;;;;;23.25;14.25;;;2.40;99.90;;;;;;2038588;69;21034;-92
2021/12/20 10:31:45;;;;;;;23.98;14.70;;;2.30;99.90;;;;;;1979969;71;21084;-91
2021/12/20 10:34:39;;;;;;;24.95;14.80;;;2.30;99.90;;;;;;2032017;70;21046;-91
2021/12/20 10:37:40;;;;;;;27.58;14.33;;;2.40;99.90;;;;;;2034490;70;21195;-92
2021/12/20 10:40:53;;;;;;;24.45;13.58;;;2.40;99.90;;;;;;2062133;69;21058;-92
2021/12/20 10:44:15;;;;;;;26.62;15.05;;;2.30;99.90;;;;;;2070466;69;21525;-92
2021/12/20 10:47:01;;;;;;;23.80;14.78;;;2.40;99.90;;;;;;2032311;70;21147;-92
2021/12/20 10:49:53;;;;;;;30.85;15.25;;;2.40;99.90;;;;;;2038312;69;21089;-92
2021/12/20 10:52:45;;;;;;;25.30;14.60;;;2.40;99.90;;;;;;2075939;69;21086;-91
2021/12/20 10:55:42;;;;;;;26.55;14.60;;;2.40;99.90;;;;;;2049669;69;21516;-92
2021/12/20 10:58:38;;;;;;;23.05;14.03;;;2.30;99.90;;;;;;2044493;69;21093;-92
2021/12/20 11:05:23;;;;;;;25.37;15.20;;;2.40;99.90;;;;;;2054665;69;21103;-92
2021/12/20 11:12:06;;;;;;;26.75;14.05;;;2.50;99.90;;;;;;2042538;70;21159;-92
2021/12/20 11:15:00;;;;;;;29.48;14.80;;;2.50;99.90;;;;;;2043037;70;21019;-92
2021/12/20 11:17:55;;;;;;;27.45;14.55;;;2.50;99.90;;;;;;2050959;69;21093;-91
2021/12/20 11:20:52;;;;;;;25.80;14.00;;;2.60;99.90;;;;;;2051970;69;21087;-90
2021/12/20 11:23:46;;;;;;;24.72;13.60;;;2.60;99.90;;;;;;2042368;70;21066;-91
2021/12/20 11:26:38;;;;;;;24.37;14.43;;;2.50;99.90;;;;;;2042774;70;21024;-92
2021/12/20 11:29:31;;;;;;;29.48;14.25;;;2.50;99.90;;;;;;2059488;69;21103;-92
2021/12/20 11:32:24;;;;;;;25.30;14.95;;;2.50;99.90;;;;;;2058021;69;21091;-93
2021/12/20 11:35:17;;;;;;;26.17;14.83;;;2.50;99.90;;;;;;2081344;69;21102;-91
2021/12/20 11:38:12;;;;;;;27.75;15.15;;;2.60;99.90;;;;;;2050940;69;21123;-91
2021/12/20 11:41:06;;;;;;;23.57;14.40;;;2.50;99.90;;;;;;2066815;69;21125;-92
2021/12/20 11:43:59;;;;;;;25.70;15.03;;;2.50;99.90;;;;;;2059743;69;21482;-92
2021/12/20 11:50:00;;;;;;;26.68;14.93;;;2.60;99.90;;;;;;1933293;72;22296;-92
2021/12/20 11:52:52;;;;;;;26.45;15.80;;;2.70;99.90;;;;;;1893421;75;22481;-91
2021/12/20 11:58:37;;;;;;;29.20;15.63;;;2.90;99.90;;;;;;1945804;72;22187;-91
2021/12/20 12:04:19;;;;;;;26.68;15.63;;;2.80;99.90;;;;;;1960176;72;22147;-91
2021/12/20 12:07:25;;;;;;;26.02;15.58;;;2.80;99.90;;;;;;1921489;73;21183;-91
2021/12/20 12:10:19;;;;;;;27.98;15.63;;;2.80;99.90;;;;;;1922082;73;21216;-91
2021/12/20 12:13:15;;;;;;;29.35;15.83;;;2.90;99.90;;;;;;1920367;73;21098;-90
2021/12/20 12:19:11;;;;;;;32.90;16.50;;;3.10;99.90;;;;;;1942277;72;22185;-91
2021/12/20 12:25:14;;;;;;;26.05;15.32;;;3.00;99.90;;;;;;1966790;71;22287;-91
2021/12/20 12:31:08;;;;;;;24.40;14.70;;;3.00;99.90;;;;;;1947367;72;22630;-89
2021/12/20 12:34:08;;;;;;;32.70;14.78;;;3.10;99.90;;;;;;1912802;75;21055;-89
2021/12/20 12:37:29;;;;;;;27.45;15.18;;;3.10;99.90;;;;;;1887369;75;21177;-89
2021/12/20 12:40:25;;;;;;;24.57;14.10;;;3.10;99.90;;;;;;1887326;75;21092;-89
2021/12/20 12:43:52;;;;;;;26.30;15.25;;;3.20;99.90;;;;;;1916419;75;21094;-90
2021/12/20 12:46:56;;;;;;;27.43;15.77;;;3.10;99.90;;;;;;1917553;75;21168;-89
2021/12/20 12:49:56;;;;;;;24.55;14.58;;;3.10;99.90;;;;;;1911948;75;21423;-89
2021/12/20 12:52:48;;;;;;;25.70;15.65;;;3.10;99.90;;;;;;1893793;75;21120;-89
2021/12/20 12:55:42;;;;;;;25.60;15.20;;;3.20;99.90;;;;;;1884581;76;21066;-90
2021/12/20 12:58:34;;;;;;;26.75;15.68;;;3.30;99.90;;;;;;1846297;76;21049;-89
2021/12/20 13:01:29;;;;;;;24.90;15.10;;;3.20;99.90;;;;;;1884855;76;21126;-91
2021/12/20 13:04:24;;;;;;;27.62;16.00;;;3.10;99.90;;;;;;1865161;76;21166;-89
2021/12/20 13:10:12;;;;;;;26.23;15.63;;;3.10;99.90;;;;;;1939643;72;22627;-90
2021/12/20 13:15:53;;;;;;;25.32;15.05;;;3.20;99.90;;;;;;1924039;72;22264;-90
2021/12/20 13:21:36;;;;;;;24.98;14.78;;;3.10;99.90;;;;;;1927345;72;22216;-91
2021/12/20 13:24:17;;;;;;;26.40;15.40;;;3.20;99.90;;;;;;1903098;73;21138;-91
2021/12/20 13:29:52;;;;;;;28.67;15.63;;;3.10;99.90;;;;;;1946192;72;22158;-90
2021/12/20 13:32:45;;;;;;;28.25;15.40;;;3.20;99.90;;;;;;1905942;75;21080;-90
2021/12/20 13:35:38;;;;;;;25.15;15.20;;;3.20;99.90;;;;;;1885263;75;21115;-90
2021/12/20 13:38:33;;;;;;;27.52;15.68;;;3.10;99.90;;;;;;1888831;75;21134;-89
2021/12/20 13:41:43;;;;;;;26.20;15.20;;;3.10;99.90;;;;;;1888247;75;21055;-90
2021/12/20 13:44:35;;;;;;;25.70;14.83;;;3.20;99.90;;;;;;1883805;75;21213;-90
2021/12/20 13:47:29;;;;;;;23.70;14.58;;;3.20;99.90;;;;;;1878442;75;21059;-89
2021/12/20 13:50:23;;;;;;;26.23;15.15;;;3.20;99.90;;;;;;1888391;75;21056;-90
2021/12/20 13:53:30;;;;;;;27.22;15.43;;;3.10;99.90;;;;;;1873187;76;21094;-90
2021/12/20 13:56:22;;;;;;;25.35;15.03;;;3.10;99.90;;;;;;1880642;75;21541;-91
2021/12/20 13:59:14;;;;;;;24.80;14.70;;;3.20;99.90;;;;;;1883772;75;21104;-91
2021/12/20 14:02:09;;;;;;;25.12;14.93;;;3.20;99.90;;;;;;1883896;75;21166;-89
2021/12/20 14:05:13;;;;;;;27.22;15.18;;;3.20;99.90;;;;;;1906100;75;21052;-91
2021/12/20 14:08:09;;;;;;;26.95;15.32;;;3.20;99.90;;;;;;1905416;75;21065;-90
2021/12/20 14:11:01;;;;;;;25.02;15.15;;;3.30;99.90;;;;;;1890588;75;21109;-90
2021/12/20 14:13:55;;;;;;;25.50;14.63;;;3.20;99.90;;;;;;1874710;76;21042;-90
2021/12/20 14:17:02;;;;;;;24.18;14.07;;;3.20;99.90;;;;;;1894984;75;21137;-90
2021/12/20 14:20:13;;;;;;;23.70;14.03;;;3.20;99.90;;;;;;1895449;75;21128;-90
2021/12/20 14:23:29;;;;;;;29.20;16.90;;;3.20;99.90;;;;;;1874220;75;21056;-91
2021/12/20 14:30:24;;;;;;;27.37;14.63;;;3.30;99.90;;;;;;1994645;71;22107;-90
2021/12/20 14:33:25;;;;;;;24.30;15.10;;;3.30;99.90;;;;;;1930745;73;21149;-90
2021/12/20 14:36:19;;;;;;;27.07;14.55;;;3.30;99.90;;;;;;1999910;70;21133;-90
2021/12/20 14:39:15;;;;;;;26.85;15.23;;;3.30;99.90;;;;;;1998253;70;21084;-90
2021/12/20 14:42:32;;;;;;;24.43;14.70;;;3.30;99.90;;;;;;2007480;70;21061;-90
2021/12/20 14:45:23;;;;;;;25.12;15.00;;;3.20;99.90;;;;;;2032116;70;21069;-89
2021/12/20 14:48:28;;;;;;;24.43;15.05;;;3.20;99.90;;;;;;2012612;70;21052;-89
2021/12/20 14:51:21;;;;;;;23.80;14.38;;;3.20;99.90;;;;;;2017802;70;21025;-89
2021/12/20 14:54:16;;;;;;;23.85;14.43;;;3.20;99.90;;;;;;2005561;70;21147;-90
2021/12/20 14:57:14;;;;;;;25.50;14.60;;;3.20;99.90;;;;;;2002305;70;21076;-89
2021/12/20 15:00:09;;;;;;;25.88;15.23;;;3.20;99.90;;;;;;2020168;70;21181;-89
2021/12/20 15:05:45;;;;;;;26.55;14.93;;;3.20;99.90;;;;;;1955802;72;22265;-89
2021/12/20 15:08:38;;;;;;;22.95;14.90;;;3.20;99.90;;;;;;1924066;74;21179;-89
2021/12/20 15:11:29;;;;;;;26.65;15.50;;;3.10;99.90;;;;;;1922166;74;21054;-90
2021/12/20 15:14:21;;;;;;;27.58;14.53;;;3.10;99.90;;;;;;1832192;77;21080;-91
2021/12/20 15:17:32;;;;;;;27.58;15.15;;;3.10;99.90;;;;;;1901919;75;21046;-90
2021/12/20 15:20:25;;;;;;;30.50;14.65;;;3.10;99.90;;;;;;1884785;76;21098;-90
2021/12/20 15:23:18;;;;;;;26.05;15.60;;;3.10;99.90;;;;;;1906840;75;21117;-89
2021/12/20 15:26:09;;;;;;;25.97;15.48;;;3.10;99.90;;;;;;1887255;75;21148;-90
2021/12/20 15:29:03;;;;;;;24.75;14.68;;;3.10;99.90;;;;;;1898067;75;21055;-91
2021/12/20 15:31:56;;;;;;;23.07;13.50;;;3.10;99.90;;;;;;1899506;75;21070;-90
2021/12/20 15:34:51;;;;;;;23.60;14.55;;;3.00;99.90;;;;;;1902692;75;21101;-90
2021/12/20 15:37:42;;;;;;;24.82;14.70;;;3.00;99.90;;;;;;1892600;75;21214;-90
2021/12/20 15:40:35;;;;;;;26.62;14.18;;;3.00;99.90;;;;;;1896436;75;21055;-90
2021/12/20 15:43:26;;;;;;;29.18;14.47;;;3.00;99.90;;;;;;1900907;75;21103;-90
2021/12/20 15:46:20;;;;;;;27.07;15.40;;;3.00;99.90;;;;;;1884878;76;21187;-89
2021/12/20 15:49:13;;;;;;;27.13;15.60;;;3.00;99.90;;;;;;1891241;75;21106;-89
2021/12/20 15:52:06;;;;;;;25.15;14.63;;;2.90;99.90;;;;;;1916246;75;21047;-90
2021/12/20 15:55:17;;;;;;;27.73;14.38;;;2.90;99.90;;;;;;1906339;75;21117;-90
2021/12/20 15:58:27;;;;;;;24.40;14.65;;;2.90;99.90;;;;;;1884562;76;21095;-91
2021/12/20 16:01:18;;;;;;;25.70;14.65;;;3.00;99.90;;;;;;1900623;75;21117;-89
2021/12/20 16:04:10;;;;;;;24.65;15.13;;;2.90;99.90;;;;;;1896592;75;21094;-90
2021/12/20 16:07:02;;;;;;;23.15;14.78;;;3.00;99.90;;;;;;1895786;75;21095;-90
2021/12/20 16:09:54;;;;;;;23.83;14.43;;;2.90;99.90;;;;;;1895925;75;21243;-89
2021/12/20 16:12:46;;;;;;;24.20;13.98;;;2.90;99.90;;;;;;1899607;75;21057;-90
2021/12/20 16:15:38;;;;;;;23.73;13.80;;;2.90;99.90;;;;;;1900069;75;21071;-90
2021/12/20 16:18:29;;;;;;;28.55;15.70;;;2.90;99.90;;;;;;1888915;75;21112;-90
2021/12/20 16:21:20;;;;;;;25.57;15.53;;;2.90;99.90;;;;;;1884328;76;21106;-90
2021/12/20 16:24:12;;;;;;;25.12;14.55;;;2.90;99.90;;;;;;1884535;76;21047;-90
2021/12/20 16:27:03;;;;;;;25.45;15.15;;;3.00;99.90;;;;;;1898685;75;21102;-89
2021/12/20 16:30:02;;;;;;;23.98;14.50;;;2.90;99.90;;;;;;1907618;75;21060;-89
2021/12/20 16:32:55;;;;;;;21.48;13.65;;;2.80;99.90;;;;;;1884128;76;21195;-90
2021/12/20 16:35:46;;;;;;;21.35;14.05;;;2.90;99.90;;;;;;1906353;75;21053;-90
2021/12/20 16:38:38;;;;;;;25.32;14.90;;;2.90;99.90;;;;;;1901398;75;21655;-90
2021/12/20 16:41:31;;;;;;;23.22;14.80;;;3.00;99.90;;;;;;1895936;75;21051;-90
2021/12/20 16:44:25;;;;;;;24.52;14.40;;;3.00;99.90;;;;;;1910036;75;21132;-90
2021/12/20 16:47:22;;;;;;;27.25;15.20;;;3.00;99.90;;;;;;1906372;75;21059;-90
2021/12/20 16:50:14;;;;;;;26.82;16.80;;;3.00;99.90;;;;;;1904173;75;21146;-90
2021/12/20 16:53:08;;;;;;;24.87;15.63;;;3.00;99.90;;;;;;1898978;75;21099;-90
2021/12/20 16:56:01;;;;;;;27.00;16.25;;;2.90;99.90;;;;;;1907218;75;21058;-90
2021/12/20 16:58:52;;;;;;;28.85;17.15;;;2.90;99.90;;;;;;1911521;75;21087;-90
2021/12/20 17:01:45;;;;;;;28.30;17.37;;;3.00;99.90;;;;;;1894925;75;21121;-90
2021/12/20 17:04:41;;;;;;;42.10;24.32;;;3.00;99.90;;;;;;1901235;75;21117;-91
2021/12/20 17:07:32;;;;;;;26.80;16.42;;;3.00;99.90;;;;;;1884122;75;21166;-90
2021/12/20 17:10:25;;;;;;;26.93;16.00;;;3.00;99.90;;;;;;1913827;75;21110;-90
2021/12/20 17:13:19;;;;;;;28.85;16.80;;;3.10;99.90;;;;;;1916802;75;21134;-91